Time;durP1;ratioP1;P1;durP2;ratioP2;P2;SDS_P1;SDS_P2;PMS_P1;PMS_P2;Temp;Humidity;BMP_temperature;BMP_pressure;BME280_temperature;BME280_humidity;BME280_pressure;Samples;Min_cycle;Max_cycle;Signal;HPM_P1;HPM_P2
2021/05/06 00:32:38;;;;;;;1.30;1.30;;;;;;;5.38;84.01;96338.41;5030885;28;20608;-64
2021/05/06 00:35:06;;;;;;;1.50;1.40;;;;;;;5.35;84.91;96328.41;5030948;28;20197;-64
2021/05/06 00:37:40;;;;;;;1.63;1.40;;;;;;;5.44;83.33;96329.00;5031461;28;20182;-65
2021/05/06 00:40:08;;;;;;;1.40;1.30;;;;;;;5.49;83.75;96318.00;5031468;28;20171;-64
2021/05/06 00:42:48;;;;;;;1.83;1.60;;;;;;;5.44;83.94;96323.81;5030258;28;20247;-64
2021/05/06 01:01:37;;;;;;;2.07;1.63;;;;;;;5.50;83.15;96307.41;5030559;28;20577;-65
2021/05/06 01:06:32;;;;;;;1.70;1.60;;;;;;;5.57;82.95;96307.38;5030964;28;20213;-65
2021/05/06 01:09:03;;;;;;;1.57;1.50;;;;;;;5.53;83.10;96301.78;5029727;28;20683;-64
2021/05/06 01:14:04;;;;;;;1.50;1.40;;;;;;;5.46;83.91;96295.81;5024322;28;20194;-64
2021/05/06 01:16:30;;;;;;;3.20;1.73;;;;;;;5.43;83.69;96304.03;5030513;28;20179;-64
2021/05/06 01:18:56;;;;;;;1.50;1.50;;;;;;;5.47;83.83;96302.59;5017459;28;20280;-64
2021/05/06 01:21:21;;;;;;;1.83;1.40;;;;;;;5.46;83.91;96301.03;5030796;28;20191;-64
2021/05/06 01:23:47;;;;;;;1.80;1.40;;;;;;;5.42;84.46;96310.22;5029966;28;20711;-64
2021/05/06 01:26:18;;;;;;;1.53;1.43;;;;;;;5.50;83.39;96306.59;5030305;28;20203;-64
2021/05/06 01:28:46;;;;;;;1.60;1.53;;;;;;;5.55;82.96;96302.38;5029515;28;20178;-66
2021/05/06 01:31:16;;;;;;;1.63;1.53;;;;;;;5.52;83.15;96313.16;5030493;28;20254;-65
2021/05/06 01:36:18;;;;;;;1.37;1.33;;;;;;;5.62;82.70;96302.34;5030904;28;20179;-64
2021/05/06 01:46:34;;;;;;;1.70;1.60;;;;;;;5.66;81.88;96298.31;5030514;28;20625;-65
2021/05/06 01:49:41;;;;;;;1.57;1.43;;;;;;;5.61;81.81;96301.56;5029970;28;20228;-65
2021/05/06 01:59:55;;;;;;;1.80;1.70;;;;;;;5.68;81.93;96304.13;5032896;28;20293;-65
2021/05/06 02:02:20;;;;;;;1.80;1.30;;;;;;;5.69;81.68;96305.69;5033243;28;20205;-65
2021/05/06 02:04:46;;;;;;;1.70;1.60;;;;;;;5.70;81.43;96299.50;5033313;28;20186;-64
2021/05/06 02:07:11;;;;;;;2.50;1.60;;;;;;;5.79;81.03;96298.28;5034084;28;20655;-65
2021/05/06 02:09:37;;;;;;;2.47;1.33;;;;;;;5.67;81.61;96295.53;5034070;28;20186;-64
2021/05/06 02:12:03;;;;;;;2.60;1.53;;;;;;;5.69;80.91;96290.91;5033318;28;20183;-64
2021/05/06 02:14:29;;;;;;;1.50;1.40;;;;;;;5.67;81.14;96298.13;5033478;28;20191;-64
2021/05/06 02:16:54;;;;;;;1.50;1.50;;;;;;;5.69;80.89;96290.91;5033169;28;20300;-64
2021/05/06 02:19:32;;;;;;;2.40;1.40;;;;;;;5.81;80.32;96291.03;5033923;28;20190;-64
2021/05/06 02:21:58;;;;;;;1.63;1.53;;;;;;;5.82;80.52;96288.22;5032834;28;20537;-65
2021/05/06 02:24:24;;;;;;;4.63;1.70;;;;;;;5.79;80.81;96282.66;5033525;28;20285;-64
2021/05/06 02:26:49;;;;;;;1.50;1.37;;;;;;;5.78;80.97;96276.66;5032985;28;20281;-64
2021/05/06 02:29:15;;;;;;;1.63;1.53;;;;;;;5.75;80.60;96271.06;5033033;28;20187;-64
2021/05/06 02:31:40;;;;;;;1.87;1.53;;;;;;;5.79;80.58;96262.66;5033447;28;20236;-64
2021/05/06 02:34:05;;;;;;;1.47;1.40;;;;;;;5.64;81.22;96259.53;5032920;28;20229;-64
2021/05/06 02:36:31;;;;;;;1.53;1.53;;;;;;;5.68;80.98;96252.13;5033055;28;20189;-65
2021/05/06 02:38:56;;;;;;;11.83;1.87;;;;;;;5.65;81.30;96255.94;5032663;28;20186;-64
2021/05/06 02:41:21;;;;;;;1.77;1.60;;;;;;;5.71;81.35;96255.09;5032278;28;20186;-64
2021/05/06 02:43:47;;;;;;;1.60;1.50;;;;;;;5.61;81.58;96256.56;5032523;28;20186;-64
2021/05/06 02:46:12;;;;;;;1.50;1.43;;;;;;;5.61;81.43;96265.16;5032594;28;20237;-64
2021/05/06 02:48:38;;;;;;;1.43;1.33;;;;;;;5.62;81.17;96253.75;5033658;28;20645;-65
2021/05/06 02:51:05;;;;;;;1.73;1.63;;;;;;;5.61;81.09;96248.75;5032185;28;20248;-64
2021/05/06 02:53:35;;;;;;;1.97;1.57;;;;;;;5.63;81.53;96247.53;5033352;28;20694;-64
2021/05/06 03:03:54;;;;;;;1.60;1.50;;;;;;;5.70;81.28;96258.69;5021431;28;20811;-64
2021/05/06 03:06:26;;;;;;;2.10;1.90;;;;;;;5.62;82.24;96250.38;5031597;28;20693;-64
2021/05/06 03:08:57;;;;;;;2.70;1.50;;;;;;;5.69;82.19;96254.50;5014164;28;20178;-64
2021/05/06 03:24:33;;;;;;;1.80;1.70;;;;;;;5.49;83.52;96258.22;5032226;28;20183;-64
2021/05/06 03:26:59;;;;;;;5.00;2.10;;;;;;;5.35;84.28;96268.66;5030267;28;20682;-65
2021/05/06 03:42:41;;;;;;;2.70;1.93;;;;;;;4.93;93.75;96225.06;5032363;28;20252;-65
2021/05/06 04:28:26;;;;;;;1.90;1.67;;;;;;;4.65;98.76;96175.22;5030025;28;20666;-64
2021/05/06 04:31:18;;;;;;;1.60;1.50;;;;;;;4.68;99.26;96175.59;5030112;28;20186;-64
2021/05/06 04:38:59;;;;;;;1.73;1.40;;;;;;;4.71;98.97;96164.03;5030398;28;20179;-64
2021/05/06 04:41:46;;;;;;;2.33;1.53;;;;;;;4.80;97.69;96168.78;5031232;28;20233;-64
2021/05/06 04:55:27;;;;;;;2.33;1.70;;;;;;;5.37;95.98;96167.13;5030788;28;20190;-64
2021/05/06 04:58:37;;;;;;;2.70;1.97;;;;;;;5.50;95.59;96161.06;5030362;28;20201;-64
2021/05/06 05:03:37;;;;;;;2.17;1.50;;;;;;;5.79;93.95;96173.47;5030558;28;20527;-65
2021/05/06 05:06:03;;;;;;;2.10;2.00;;;;;;;5.93;93.05;96166.38;5030500;28;20194;-64
2021/05/06 05:08:36;;;;;;;3.30;1.93;;;;;;;5.99;92.22;96155.91;5019178;28;20187;-64
2021/05/06 05:11:25;;;;;;;2.20;1.67;;;;;;;6.23;91.01;96169.91;5030425;28;20594;-64
2021/05/06 05:26:46;;;;;;;8.27;1.70;;;;;;;6.60;88.24;96148.13;5030118;28;20229;-64
2021/05/06 05:29:12;;;;;;;1.90;1.80;;;;;;;6.86;91.93;96157.44;5031259;28;20191;-67
2021/05/06 05:31:37;;;;;;;1.70;1.60;;;;;;;7.44;90.26;96156.91;5034296;28;20186;-64
2021/05/06 05:34:15;;;;;;;2.37;1.77;;;;;;;7.85;85.19;96151.69;5033754;28;20186;-64
2021/05/06 05:36:41;;;;;;;2.37;1.63;;;;;;;7.59;82.37;96156.47;5034613;28;20209;-64
2021/05/06 05:39:16;;;;;;;1.67;1.57;;;;;;;7.39;82.81;96149.75;5033944;28;20206;-64
2021/05/06 05:55:22;;;;;;;1.63;1.53;;;;;;;6.97;84.18;96143.66;5033975;28;20193;-64
2021/05/06 05:57:51;;;;;;;1.60;1.50;;;;;;;6.85;85.04;96132.41;5033651;28;20187;-64
2021/05/06 06:00:16;;;;;;;1.53;1.33;;;;;;;6.67;85.80;96145.44;5033613;28;20226;-64
2021/05/06 06:02:42;;;;;;;5.80;1.60;;;;;;;6.63;86.45;96139.84;5033765;28;20186;-64
2021/05/06 06:05:08;;;;;;;1.87;1.70;;;;;;;6.67;85.03;96141.03;5033144;28;20297;-64
2021/05/06 06:07:33;;;;;;;2.00;1.67;;;;;;;6.62;84.75;96145.31;5033453;28;20206;-64
2021/05/06 06:09:59;;;;;;;3.30;1.73;;;;;;;6.57;84.97;96145.16;5032624;28;20272;-64
2021/05/06 06:12:24;;;;;;;2.40;1.60;;;;;;;6.56;84.31;96141.75;5033810;28;20195;-64
2021/05/06 06:15:01;;;;;;;1.77;1.30;;;;;;;6.58;83.42;96152.72;5032756;28;20653;-64
2021/05/06 06:17:30;;;;;;;1.13;1.10;;;;;;;6.57;84.01;96150.38;5033763;28;20179;-64
2021/05/06 06:19:58;;;;;;;2.67;1.70;;;;;;;6.60;84.72;96152.53;5032620;28;20166;-67
2021/05/06 06:22:25;;;;;;;1.93;1.70;;;;;;;6.58;84.74;96157.94;5033115;28;20230;-64
2021/05/06 06:24:51;;;;;;;2.00;1.40;;;;;;;6.62;84.23;96153.91;5033002;28;20197;-65
2021/05/06 06:27:18;;;;;;;3.10;1.87;;;;;;;6.53;84.35;96151.78;5033235;28;20690;-64
2021/05/06 06:29:43;;;;;;;1.67;1.50;;;;;;;6.52;84.75;96147.63;5033043;28;20187;-63
2021/05/06 06:32:12;;;;;;;3.20;1.70;;;;;;;6.59;84.01;96148.31;5032263;28;20205;-64
2021/05/06 06:34:38;;;;;;;2.20;1.80;;;;;;;6.46;85.28;96141.47;5033005;28;20193;-64
2021/05/06 06:37:03;;;;;;;1.97;1.70;;;;;;;6.38;86.39;96146.16;5014602;28;20270;-64
2021/05/06 06:39:29;;;;;;;2.90;1.80;;;;;;;6.46;86.13;96136.28;5031894;28;20244;-63
2021/05/06 06:41:55;;;;;;;1.43;1.33;;;;;;;6.49;86.11;96132.41;5032477;28;20585;-64
2021/05/06 06:44:26;;;;;;;3.40;1.60;;;;;;;6.66;85.88;96131.63;5033599;28;20214;-63
2021/05/06 06:47:01;;;;;;;2.47;1.60;;;;;;;6.81;83.99;96123.44;5032538;28;20186;-64
2021/05/06 06:49:32;;;;;;;4.50;1.73;;;;;;;6.75;83.70;96119.09;5033351;28;20261;-64
2021/05/06 06:51:58;;;;;;;3.90;1.83;;;;;;;6.87;82.99;96119.16;5032285;28;20170;-64
2021/05/06 06:54:25;;;;;;;2.37;1.60;;;;;;;6.66;84.40;96113.41;5033049;28;20562;-63
2021/05/06 06:56:51;;;;;;;2.83;1.67;;;;;;;6.79;83.36;96111.66;5032359;28;20199;-64
2021/05/06 06:59:16;;;;;;;2.80;1.63;;;;;;;6.74;84.16;96117.53;5032948;28;20191;-64
2021/05/06 07:01:41;;;;;;;1.90;1.67;;;;;;;6.79;84.32;96122.88;5013994;28;20262;-63
2021/05/06 07:04:07;;;;;;;1.97;1.60;;;;;;;6.76;83.33;96122.50;5032119;28;20286;-64
2021/05/06 07:06:32;;;;;;;2.20;1.67;;;;;;;6.79;83.75;96122.06;5032567;28;20206;-64
2021/05/06 07:08:58;;;;;;;2.23;1.70;;;;;;;6.86;83.57;96115.75;5032301;28;20186;-64
2021/05/06 07:11:24;;;;;;;1.47;1.40;;;;;;;6.96;82.60;96112.66;5032281;28;20186;-64
2021/05/06 07:13:49;;;;;;;1.30;1.30;;;;;;;7.07;82.96;96107.50;5014102;28;20281;-65
2021/05/06 07:16:14;;;;;;;3.83;1.50;;;;;;;7.18;82.43;96123.38;5014268;28;20179;-64
2021/05/06 07:18:40;;;;;;;4.47;1.57;;;;;;;7.23;82.76;96120.91;5015114;28;20183;-64
2021/05/06 07:21:06;;;;;;;2.70;1.30;;;;;;;7.31;82.20;96115.34;5032038;28;20193;-63
2021/05/06 07:23:34;;;;;;;3.60;1.60;;;;;;;7.52;81.01;96118.25;5032597;28;20273;-63
2021/05/06 07:25:59;;;;;;;2.30;1.60;;;;;;;7.65;78.43;96113.84;5031205;28;20273;-63
2021/05/06 07:28:36;;;;;;;1.83;1.53;;;;;;;7.61;78.85;96112.72;5032279;28;20266;-63
2021/05/06 07:31:03;;;;;;;1.73;1.40;;;;;;;7.76;77.88;96111.28;5016810;28;20232;-63
2021/05/06 07:33:29;;;;;;;4.50;1.50;;;;;;;7.80;77.91;96114.25;5031982;28;20736;-63
2021/05/06 07:35:56;;;;;;;2.17;1.60;;;;;;;7.90;77.83;96111.88;5031426;28;20198;-63
2021/05/06 07:38:22;;;;;;;3.27;1.40;;;;;;;8.04;76.71;96109.81;5031028;28;20198;-63
2021/05/06 07:40:48;;;;;;;1.83;1.63;;;;;;;7.87;75.91;96115.72;5032208;28;20178;-63
2021/05/06 07:43:13;;;;;;;2.10;1.57;;;;;;;8.09;75.26;96122.97;5032055;28;20187;-63
2021/05/06 07:45:39;;;;;;;3.23;1.20;;;;;;;8.24;73.83;96118.13;5031011;28;20547;-63
2021/05/06 07:48:05;;;;;;;2.80;1.63;;;;;;;8.24;72.87;96099.84;5031270;28;20222;-63
2021/05/06 07:50:31;;;;;;;2.17;1.40;;;;;;;8.47;73.19;96099.81;5032332;28;20170;-63
2021/05/06 07:53:35;;;;;;;1.50;1.17;;;;;;;8.56;72.17;96092.44;5030418;28;20179;-64
2021/05/06 07:55:48;;;;;;;3.80;1.30;;;;;;;8.89;70.25;96094.38;5028652;28;20194;-64
2021/05/06 07:58:13;;;;;;;1.20;1.07;;;;;;;9.19;71.12;96095.72;5031277;28;20278;-64
2021/05/06 08:00:38;;;;;;;1.30;1.20;;;;;;;9.38;69.84;96095.53;5013838;28;20678;-64
2021/05/06 08:03:06;;;;;;;2.87;1.40;;;;;;;9.47;69.17;96091.53;5029743;28;20678;-64
2021/05/06 08:05:32;;;;;;;6.57;1.40;;;;;;;9.58;67.80;96094.03;5031394;28;20248;-64
2021/05/06 08:07:57;;;;;;;1.43;1.20;;;;;;;9.60;68.50;96105.06;5030810;28;20218;-64
2021/05/06 08:10:24;;;;;;;2.07;1.33;;;;;;;9.63;68.14;96103.03;5031988;28;20218;-64
2021/05/06 08:12:49;;;;;;;2.13;1.50;;;;;;;9.75;67.67;96095.91;5031048;28;20179;-64
2021/05/06 08:15:15;;;;;;;2.20;1.10;;;;;;;9.79;67.83;96102.25;5031159;28;20183;-64
2021/05/06 08:17:41;;;;;;;2.93;1.50;;;;;;;9.84;66.91;96099.69;5031576;28;20547;-64
2021/05/06 08:20:13;;;;;;;1.50;1.30;;;;;;;9.86;66.85;96108.13;5030981;28;20194;-64
2021/05/06 08:22:39;;;;;;;3.50;1.00;;;;;;;9.87;67.40;96101.81;5031511;28;20190;-64
2021/05/06 08:25:07;;;;;;;2.87;1.17;;;;;;;9.93;67.13;96093.81;5030112;28;20217;-63
2021/05/06 08:27:32;;;;;;;2.30;1.40;;;;;;;9.92;67.21;96100.06;5013421;28;20225;-63
2021/05/06 08:30:00;;;;;;;1.90;1.17;;;;;;;10.01;67.30;96092.63;5030949;28;20175;-63
2021/05/06 08:32:26;;;;;;;2.30;1.37;;;;;;;10.05;66.48;96088.50;5014975;28;20218;-63
2021/05/06 08:34:51;;;;;;;1.67;1.13;;;;;;;10.10;66.42;96085.16;5030443;28;20654;-64
2021/05/06 08:37:17;;;;;;;3.93;1.47;;;;;;;10.13;65.94;96082.88;5031249;28;20651;-62
2021/05/06 08:39:43;;;;;;;1.30;1.20;;;;;;;10.20;65.16;96083.50;5031085;28;20256;-63
2021/05/06 08:42:09;;;;;;;1.23;1.13;;;;;;;10.16;66.22;96081.56;5030411;28;20189;-62
2021/05/06 08:44:36;;;;;;;1.93;1.30;;;;;;;10.24;64.34;96075.97;5031413;28;20237;-62
2021/05/06 08:47:05;;;;;;;3.67;1.40;;;;;;;10.12;65.06;96085.72;5030525;28;20199;-63
2021/05/06 08:49:32;;;;;;;3.23;1.10;;;;;;;10.26;65.68;96085.16;5030653;28;20179;-63
2021/05/06 08:51:59;;;;;;;3.03;1.10;;;;;;;10.17;64.96;96077.97;5030052;28;20205;-63
2021/05/06 08:54:25;;;;;;;2.20;1.10;;;;;;;10.19;64.21;96078.53;5031225;28;20183;-62
2021/05/06 08:56:51;;;;;;;1.87;1.30;;;;;;;10.09;64.00;96075.69;5030864;28;20643;-62
2021/05/06 08:59:16;;;;;;;1.20;1.10;;;;;;;10.26;64.28;96077.28;5030425;28;20190;-62
2021/05/06 09:01:42;;;;;;;1.93;1.30;;;;;;;10.18;64.03;96074.31;5030176;28;20345;-62
2021/05/06 09:04:07;;;;;;;2.03;1.10;;;;;;;9.87;63.89;96091.34;5030740;28;20689;-62
2021/05/06 09:06:33;;;;;;;1.80;1.20;;;;;;;9.93;65.02;96088.56;5035204;28;20226;-62
2021/05/06 09:09:03;;;;;;;1.20;1.10;;;;;;;9.94;65.21;96087.56;5033686;28;20189;-62
2021/05/06 09:11:35;;;;;;;2.40;1.43;;;;;;;9.88;65.39;96080.66;5034948;28;20274;-62
2021/05/06 09:14:08;;;;;;;1.30;1.10;;;;;;;9.69;65.79;96081.94;5033898;28;20277;-62
2021/05/06 09:16:40;;;;;;;3.30;1.37;;;;;;;9.66;66.98;96079.00;5034506;28;20213;-62
2021/05/06 09:19:16;;;;;;;4.07;1.70;;;;;;;9.69;65.77;96073.28;5033515;28;20186;-62
2021/05/06 09:21:45;;;;;;;3.33;1.50;;;;;;;9.55;66.03;96072.81;5034823;28;20178;-62
2021/05/06 09:24:10;;;;;;;1.20;1.10;;;;;;;9.51;66.86;96072.50;5033814;28;20198;-62
2021/05/06 09:26:38;;;;;;;2.43;1.17;;;;;;;9.42;68.29;96075.72;5034354;28;20218;-62
2021/05/06 09:29:06;;;;;;;2.13;1.40;;;;;;;9.28;69.85;96083.09;5033336;28;20206;-62
2021/05/06 09:31:35;;;;;;;1.20;1.13;;;;;;;9.28;70.75;96083.09;5019433;28;20568;-62
2021/05/06 09:34:04;;;;;;;3.27;1.33;;;;;;;8.97;73.09;96084.34;5033123;28;20515;-62
2021/05/06 09:36:29;;;;;;;2.67;1.40;;;;;;;8.87;73.43;96078.13;5016966;28;20190;-62
2021/05/06 09:38:56;;;;;;;4.43;1.40;;;;;;;8.71;76.43;96082.28;5033557;28;20181;-62
2021/05/06 09:41:29;;;;;;;2.17;1.60;;;;;;;8.65;78.04;96081.38;5034306;28;20182;-62
2021/05/06 09:44:06;;;;;;;1.53;1.20;;;;;;;8.58;78.87;96082.56;5033493;28;20262;-63
2021/05/06 09:46:39;;;;;;;1.40;1.33;;;;;;;8.56;79.60;96085.41;5034226;28;20272;-63
2021/05/06 09:49:12;;;;;;;1.40;1.30;;;;;;;8.53;80.86;96085.03;5033757;28;20175;-63
2021/05/06 09:51:39;;;;;;;2.30;1.50;;;;;;;8.56;81.12;96080.16;5023904;28;20185;-63
2021/05/06 09:54:11;;;;;;;2.20;1.63;;;;;;;8.59;83.96;96077.09;5033157;28;20182;-63
2021/05/06 09:56:38;;;;;;;2.77;1.70;;;;;;;8.63;83.70;96086.06;5034039;28;20529;-63
2021/05/06 09:59:04;;;;;;;1.90;1.80;;;;;;;8.81;84.73;96079.84;5033302;28;20182;-63
2021/05/06 10:01:38;;;;;;;2.57;1.90;;;;;;;8.87;85.16;96072.91;5015926;28;20234;-62
2021/05/06 10:04:23;;;;;;;3.00;2.07;;;;;;;8.80;87.10;96069.66;5029386;28;20646;-63
2021/05/06 10:07:17;;;;;;;3.13;1.80;;;;;;;8.92;85.79;96068.56;5025307;28;20206;-63
2021/05/06 10:09:48;;;;;;;1.93;1.80;;;;;;;9.01;85.38;96075.03;5029776;28;20190;-63
2021/05/06 10:12:14;;;;;;;3.20;1.60;;;;;;;8.95;84.79;96081.19;5032680;28;20210;-63
2021/05/06 10:14:41;;;;;;;2.20;1.43;;;;;;;8.89;84.64;96079.50;5032393;28;20190;-63
2021/05/06 10:17:06;;;;;;;2.70;1.90;;;;;;;8.97;82.97;96068.66;5030186;28;20194;-64
2021/05/06 10:19:31;;;;;;;2.47;1.80;;;;;;;8.87;83.26;96065.06;5026320;28;20273;-63
2021/05/06 10:21:57;;;;;;;4.03;1.90;;;;;;;8.97;83.66;96068.66;5026551;28;20578;-63
2021/05/06 10:24:23;;;;;;;4.60;1.60;;;;;;;8.97;84.40;96065.28;5032939;28;20270;-64
2021/05/06 10:26:49;;;;;;;4.77;1.73;;;;;;;8.95;83.35;96068.13;5033022;28;20198;-63
2021/05/06 10:29:16;;;;;;;2.93;1.70;;;;;;;8.96;81.43;96056.66;5031471;28;20277;-63
2021/05/06 10:31:43;;;;;;;1.53;1.43;;;;;;;8.87;81.78;96052.81;5033685;28;20210;-63
2021/05/06 10:34:09;;;;;;;1.33;1.30;;;;;;;8.80;82.53;96057.41;5032398;28;20201;-63
2021/05/06 10:36:35;;;;;;;2.00;1.43;;;;;;;8.74;82.75;96055.72;5033342;28;20191;-63
2021/05/06 10:39:01;;;;;;;2.47;1.33;;;;;;;8.93;81.04;96061.53;5032532;28;20635;-63
2021/05/06 10:41:29;;;;;;;2.17;1.53;;;;;;;8.87;80.29;96052.81;5033143;28;20205;-64
2021/05/06 10:44:15;;;;;;;1.50;1.40;;;;;;;8.86;80.73;96050.44;5032323;28;20267;-64
2021/05/06 10:47:03;;;;;;;1.30;1.20;;;;;;;8.59;80.71;96044.94;5033259;28;20199;-63
2021/05/06 10:49:38;;;;;;;1.87;1.30;;;;;;;8.64;79.98;96043.22;5026270;28;20185;-63
2021/05/06 10:52:05;;;;;;;1.57;1.20;;;;;;;8.67;79.31;96034.94;5031831;28;20265;-64
2021/05/06 10:54:36;;;;;;;1.80;1.17;;;;;;;8.69;79.04;96032.09;5033001;28;20205;-63
2021/05/06 10:57:28;;;;;;;1.30;1.00;;;;;;;8.88;78.13;96024.84;5014403;28;20186;-63
2021/05/06 10:59:55;;;;;;;1.13;1.00;;;;;;;9.01;78.63;96024.56;5032025;28;20218;-63
2021/05/06 11:02:33;;;;;;;2.10;1.10;;;;;;;9.16;77.10;96016.97;5032792;28;20325;-63
2021/05/06 11:05:19;;;;;;;1.40;1.30;;;;;;;9.40;76.12;96009.78;5031385;28;20187;-63
2021/05/06 11:08:03;;;;;;;1.00;1.00;;;;;;;9.70;74.88;96009.44;5029364;28;20682;-63
2021/05/06 11:10:29;;;;;;;1.57;1.00;;;;;;;9.70;74.01;96006.81;5032334;28;20285;-63
2021/05/06 11:12:56;;;;;;;1.30;1.20;;;;;;;9.76;74.26;96013.72;5031888;28;20182;-64
2021/05/06 11:15:23;;;;;;;2.70;1.10;;;;;;;9.90;73.88;96009.75;5032360;28;20540;-63
2021/05/06 11:17:49;;;;;;;2.70;1.37;;;;;;;10.00;72.85;96004.66;5031247;28;20236;-63
2021/05/06 11:20:14;;;;;;;1.37;1.27;;;;;;;10.13;72.94;96000.91;5030827;28;20187;-63
2021/05/06 11:22:42;;;;;;;1.20;1.03;;;;;;;10.47;71.18;96005.03;5032339;28;20187;-63
2021/05/06 11:25:26;;;;;;;1.80;0.90;;;;;;;10.19;71.36;95999.97;5030919;28;20191;-64
2021/05/06 11:28:03;;;;;;;0.97;0.97;;;;;;;10.58;70.78;95993.63;5031497;28;20198;-64
2021/05/06 11:30:44;;;;;;;9.23;1.00;;;;;;;10.45;71.51;95991.34;5031608;28;20190;-63
2021/05/06 11:33:22;;;;;;;1.30;0.90;;;;;;;10.71;70.28;95993.22;5023377;28;20226;-63
2021/05/06 11:36:11;;;;;;;1.20;1.10;;;;;;;10.59;70.15;95983.94;5031325;28;20201;-63
2021/05/06 11:38:41;;;;;;;0.87;0.87;;;;;;;10.62;68.80;95978.19;5032113;28;20183;-66
2021/05/06 11:41:14;;;;;;;0.80;0.80;;;;;;;10.55;69.93;95972.34;5031987;28;20246;-63
2021/05/06 11:43:52;;;;;;;1.20;0.70;;;;;;;10.60;68.27;95956.66;5031897;28;20177;-63
2021/05/06 11:46:26;;;;;;;0.60;0.60;;;;;;;10.55;68.69;95962.66;5024667;28;20207;-63
2021/05/06 11:48:59;;;;;;;0.70;0.70;;;;;;;10.62;68.93;95947.53;5020461;28;20189;-65
2021/05/06 11:51:33;;;;;;;0.67;0.67;;;;;;;10.62;67.75;95949.34;5017611;28;20178;-63
2021/05/06 11:54:20;;;;;;;1.10;0.70;;;;;;;10.67;69.07;95946.78;5020656;28;20208;-64
2021/05/06 11:56:55;;;;;;;1.33;0.70;;;;;;;10.78;67.38;95948.47;5032136;28;20179;-64
2021/05/06 11:59:25;;;;;;;0.70;0.70;;;;;;;10.65;66.76;95943.59;5013384;28;20585;-64
2021/05/06 12:01:52;;;;;;;1.00;0.80;;;;;;;10.47;67.14;95939.53;5012039;28;20191;-64
2021/05/06 12:04:25;;;;;;;1.00;0.80;;;;;;;10.27;67.09;95934.84;5011301;28;20183;-64
2021/05/06 12:06:52;;;;;;;0.73;0.73;;;;;;;10.32;67.83;95929.66;5009372;28;20214;-65
2021/05/06 12:09:26;;;;;;;0.73;0.73;;;;;;;10.32;67.61;95923.63;4994297;28;20786;-64
2021/05/06 12:11:53;;;;;;;0.87;0.87;;;;;;;10.40;67.55;95921.38;5012550;28;20188;-64
2021/05/06 12:14:28;;;;;;;0.80;0.80;;;;;;;9.94;67.25;95920.03;5010346;28;20186;-64
2021/05/06 12:16:53;;;;;;;0.83;0.83;;;;;;;10.11;68.58;95921.78;5011089;28;20639;-64
2021/05/06 12:19:19;;;;;;;0.90;0.70;;;;;;;10.12;69.21;95916.31;5003662;28;20234;-64
2021/05/06 12:21:53;;;;;;;0.70;0.70;;;;;;;10.19;68.74;95906.47;4994288;28;20640;-65
2021/05/06 12:24:36;;;;;;;0.60;0.60;;;;;;;10.26;68.52;95895.78;5010949;28;20191;-64
2021/05/06 12:27:26;;;;;;;0.87;0.80;;;;;;;10.33;69.09;95888.53;5010855;28;20290;-65
2021/05/06 12:30:13;;;;;;;0.70;0.70;;;;;;;10.34;68.15;95883.06;5011327;28;20238;-65
2021/05/06 12:32:43;;;;;;;0.93;0.80;;;;;;;10.32;68.55;95877.28;5011437;28;20207;-65
2021/05/06 12:35:09;;;;;;;0.80;0.70;;;;;;;10.37;70.10;95868.66;5001523;28;20194;-64
2021/05/06 12:37:37;;;;;;;0.90;0.90;;;;;;;10.26;73.28;95870.41;5010505;28;20698;-64
2021/05/06 12:40:09;;;;;;;1.80;0.77;;;;;;;10.12;75.33;95863.94;5010578;28;20183;-65
2021/05/06 12:42:36;;;;;;;0.90;0.90;;;;;;;9.84;76.76;95867.56;5011400;28;20179;-64
2021/05/06 12:45:14;;;;;;;0.90;0.90;;;;;;;9.77;77.58;95853.88;5010979;28;20187;-64
2021/05/06 12:47:48;;;;;;;0.80;0.80;;;;;;;9.68;79.48;95854.53;5011036;28;20199;-64
2021/05/06 12:50:24;;;;;;;1.17;0.80;;;;;;;9.56;81.18;95858.06;5010474;28;20170;-64
2021/05/06 12:52:51;;;;;;;0.90;0.90;;;;;;;9.79;81.97;95845.78;4999104;28;20237;-64
2021/05/06 12:55:21;;;;;;;1.07;1.07;;;;;;;9.82;81.83;95850.50;5011018;28;20183;-64
2021/05/06 12:58:17;;;;;;;0.93;0.93;;;;;;;9.75;83.25;95842.06;5010801;28;20199;-64
2021/05/06 13:01:01;;;;;;;1.53;0.80;;;;;;;9.65;83.70;95845.34;5021846;28;20253;-64
2021/05/06 13:03:39;;;;;;;1.00;1.00;;;;;;;9.63;84.47;95844.00;5030892;28;20590;-64
2021/05/06 13:06:07;;;;;;;0.60;0.60;;;;;;;9.38;85.34;95839.25;5029971;28;20190;-64
2021/05/06 13:08:34;;;;;;;1.13;1.03;;;;;;;9.43;85.25;95847.16;5030985;28;20939;-64
2021/05/06 13:11:05;;;;;;;0.80;0.80;;;;;;;9.35;86.72;95848.38;5018739;28;20193;-64
2021/05/06 13:14:04;;;;;;;0.90;0.90;;;;;;;9.24;89.12;95841.44;5031542;28;20178;-64
2021/05/06 13:16:35;;;;;;;0.87;0.87;;;;;;;9.18;89.69;95840.56;4976601;28;20643;-63
2021/05/06 13:19:06;;;;;;;1.10;1.10;;;;;;;9.25;90.29;95844.84;5030582;28;20186;-64
2021/05/06 13:21:32;;;;;;;0.97;0.97;;;;;;;9.08;92.37;95844.88;5031106;28;20639;-63
2021/05/06 13:24:00;;;;;;;1.03;1.03;;;;;;;9.04;92.76;95838.50;5030035;28;20335;-64
2021/05/06 13:26:35;;;;;;;1.10;1.10;;;;;;;9.04;94.19;95828.06;5030399;28;20248;-64
2021/05/06 13:29:05;;;;;;;2.40;1.03;;;;;;;8.84;96.38;95836.41;5030318;28;20630;-64
2021/05/06 13:31:34;;;;;;;1.30;1.20;;;;;;;8.83;95.94;95816.53;5029727;28;20735;-64
2021/05/06 13:34:16;;;;;;;1.40;1.30;;;;;;;8.69;97.15;95826.50;5029973;28;20179;-63
2021/05/06 13:36:44;;;;;;;1.40;1.10;;;;;;;8.64;98.10;95820.41;5030123;28;20232;-63
2021/05/06 13:39:13;;;;;;;1.13;1.13;;;;;;;8.69;99.54;95810.06;5029810;28;20538;-63
2021/05/06 13:41:39;;;;;;;1.67;1.57;;;;;;;8.68;100.00;95801.44;5030053;28;20213;-63
2021/05/06 13:44:07;;;;;;;2.17;2.07;;;;;;;8.83;100.00;95798.25;5029773;28;20187;-64
2021/05/06 13:46:41;;;;;;;1.60;1.50;;;;;;;8.71;100.00;95784.47;5030103;28;20655;-64
2021/05/06 13:49:07;;;;;;;1.63;1.40;;;;;;;8.83;100.00;95792.22;5029027;28;20178;-64
2021/05/06 13:51:32;;;;;;;1.73;1.63;;;;;;;8.52;100.00;95778.72;5015919;28;20190;-64
2021/05/06 13:53:57;;;;;;;2.70;2.50;;;;;;;8.53;100.00;95774.28;5033982;28;20709;-64
2021/05/06 13:56:24;;;;;;;2.20;2.10;;;;;;;8.63;100.00;95767.41;5032418;28;20194;-64
2021/05/06 13:58:50;;;;;;;4.50;3.30;;;;;;;8.72;100.00;95752.09;5027153;28;20217;-63
2021/05/06 14:01:17;;;;;;;4.33;2.93;;;;;;;8.80;100.00;95758.75;5032893;28;20259;-63
2021/05/06 14:03:43;;;;;;;2.00;1.73;;;;;;;8.97;100.00;95749.81;5032894;28;20563;-63
2021/05/06 14:06:09;;;;;;;2.00;1.80;;;;;;;8.97;100.00;95747.22;5032982;28;20183;-64
2021/05/06 14:08:35;;;;;;;1.90;1.47;;;;;;;8.89;100.00;95746.84;5033042;28;20182;-63
2021/05/06 14:11:01;;;;;;;3.50;1.23;;;;;;;8.76;98.99;95740.94;5033594;28;20186;-63
2021/05/06 14:13:27;;;;;;;1.37;1.20;;;;;;;8.72;99.63;95729.38;5027371;28;20233;-63
2021/05/06 14:15:53;;;;;;;2.53;1.27;;;;;;;8.72;100.00;95723.38;5033805;28;20798;-63
2021/05/06 14:18:19;;;;;;;1.50;1.17;;;;;;;8.67;98.79;95720.69;5033145;28;20192;-63
2021/05/06 14:20:45;;;;;;;2.67;1.10;;;;;;;8.73;99.74;95711.91;5033489;28;20224;-63
2021/05/06 14:23:12;;;;;;;1.07;1.07;;;;;;;8.74;99.70;95703.81;5031961;28;20237;-63
2021/05/06 14:25:38;;;;;;;0.83;0.80;;;;;;;8.75;99.55;95705.38;5020495;28;20198;-63
2021/05/06 14:28:05;;;;;;;1.10;1.10;;;;;;;8.61;99.15;95716.41;5031389;28;20234;-63
2021/05/06 14:30:30;;;;;;;0.97;0.97;;;;;;;8.55;100.00;95712.16;5033354;28;20178;-62
2021/05/06 14:32:56;;;;;;;0.80;0.80;;;;;;;8.54;99.76;95713.97;5033381;28;20701;-63
2021/05/06 14:35:22;;;;;;;0.73;0.73;;;;;;;8.41;98.81;95698.66;5031677;28;20187;-65
2021/05/06 14:37:47;;;;;;;0.80;0.80;;;;;;;8.41;100.00;95697.88;5029343;28;20182;-64
2021/05/06 14:40:13;;;;;;;0.90;0.90;;;;;;;8.39;100.00;95685.03;5029212;28;20647;-63
2021/05/06 14:42:38;;;;;;;0.80;0.80;;;;;;;8.36;99.93;95693.34;5033631;28;20179;-63
2021/05/06 14:45:05;;;;;;;3.17;0.83;;;;;;;8.31;100.00;95693.25;5031282;28;20536;-63
2021/05/06 14:47:31;;;;;;;1.03;1.00;;;;;;;8.35;100.00;95689.16;5033201;28;20203;-64
2021/05/06 14:49:59;;;;;;;1.17;0.80;;;;;;;8.24;100.00;95682.97;5033057;28;20202;-63
2021/05/06 14:52:25;;;;;;;1.20;1.10;;;;;;;8.28;100.00;95681.47;5032162;28;20651;-63
2021/05/06 14:54:50;;;;;;;0.90;0.90;;;;;;;8.36;100.00;95680.28;5031843;28;20194;-61
2021/05/06 14:57:16;;;;;;;1.60;1.00;;;;;;;9.44;100.00;95674.31;5014262;28;20236;-62
2021/05/06 14:59:41;;;;;;;1.23;1.13;;;;;;;9.29;98.64;95662.91;5008648;28;20250;-61
2021/05/06 15:02:08;;;;;;;0.63;0.63;;;;;;;9.07;97.61;95650.66;5028110;28;20555;-62
2021/05/06 15:04:34;;;;;;;0.80;0.80;;;;;;;8.74;99.42;95650.78;5033098;28;20275;-62